Time;durP1;ratioP1;P1;durP2;ratioP2;P2;SDS_P1;SDS_P2;PMS_P1;PMS_P2;Temp;Humidity;BMP_temperature;BMP_pressure;BME280_temperature;BME280_humidity;BME280_pressure;Samples;Min_cycle;Max_cycle;Signal;HPM_P1;HPM_P2
2023/11/09 00:01:21;;;;;;;3.90;0.70;;;;;;;8.66;100.00;100200.94;6252459;28;20045;-75
2023/11/09 00:04:22;;;;;;;3.53;0.70;;;;;;;8.61;100.00;100197.72;6252502;28;20045;-76
2023/11/09 00:07:24;;;;;;;9.32;0.98;;;;;;;8.63;100.00;100190.63;6254000;28;20054;-75
2023/11/09 00:10:26;;;;;;;0.68;0.68;;;;;;;8.67;100.00;100186.91;6248505;28;20084;-75
2023/11/09 00:13:28;;;;;;;2.08;0.80;;;;;;;8.65;100.00;100180.91;6252229;28;20053;-75
2023/11/09 00:16:30;;;;;;;1.73;0.90;;;;;;;8.65;100.00;100188.78;6252158;28;20072;-75
2023/11/09 00:19:31;;;;;;;1.48;0.95;;;;;;;8.68;100.00;100177.28;6252263;28;20050;-75
2023/11/09 00:22:33;;;;;;;0.77;0.73;;;;;;;8.71;100.00;100177.09;6251604;28;20052;-75
2023/11/09 00:25:34;;;;;;;2.58;0.93;;;;;;;8.75;100.00;100170.78;6251916;28;20402;-75
2023/11/09 00:28:37;;;;;;;1.98;0.98;;;;;;;8.78;100.00;100166.22;6251757;28;20053;-75
2023/11/09 00:31:38;;;;;;;2.15;0.52;;;;;;;8.79;100.00;100161.81;6251745;28;20064;-75
2023/11/09 00:34:40;;;;;;;1.50;0.98;;;;;;;8.81;100.00;100152.94;6251914;28;20057;-73
2023/11/09 00:37:41;;;;;;;1.25;0.70;;;;;;;8.78;100.00;100154.88;6251717;28;20041;-75
2023/11/09 00:40:43;;;;;;;1.05;0.57;;;;;;;8.80;100.00;100151.25;6251611;28;20056;-75
2023/11/09 00:43:46;;;;;;;4.15;0.80;;;;;;;8.83;100.00;100147.63;6251379;28;20041;-75
2023/11/09 00:46:47;;;;;;;1.35;0.70;;;;;;;8.83;100.00;100137.13;6251743;28;20050;-75
2023/11/09 00:49:48;;;;;;;0.80;0.77;;;;;;;8.84;100.00;100142.28;6251318;28;20053;-73
2023/11/09 00:52:50;;;;;;;1.55;1.00;;;;;;;8.81;100.00;100139.84;6251159;28;20394;-74
2023/11/09 00:55:51;;;;;;;0.63;0.63;;;;;;;8.81;100.00;100132.00;6251298;28;20050;-74
2023/11/09 00:58:54;;;;;;;0.95;0.80;;;;;;;8.83;100.00;100131.91;6251046;28;20053;-75
2023/11/09 01:01:55;;;;;;;2.60;1.20;;;;;;;8.82;100.00;100127.59;6250932;28;20076;-74
2023/11/09 01:04:58;;;;;;;0.80;0.77;;;;;;;8.84;100.00;100117.84;6251424;28;20061;-74
2023/11/09 01:08:00;;;;;;;1.42;1.10;;;;;;;8.83;100.00;100124.03;6250899;28;20140;-74
2023/11/09 01:11:05;;;;;;;1.42;0.70;;;;;;;8.84;100.00;100121.31;6251009;28;20056;-77
2023/11/09 01:14:08;;;;;;;1.73;0.90;;;;;;;8.83;100.00;100113.56;6251000;28;20049;-76
2023/11/09 01:17:11;;;;;;;4.68;1.13;;;;;;;8.82;100.00;100111.88;6250980;28;20046;-76
2023/11/09 01:20:12;;;;;;;2.95;0.90;;;;;;;8.78;100.00;100103.34;6251967;28;20141;-76
2023/11/09 01:23:14;;;;;;;6.45;0.98;;;;;;;8.79;100.00;100099.78;6245320;28;20049;-74
2023/11/09 01:26:15;;;;;;;4.20;1.40;;;;;;;8.78;100.00;100107.72;6250965;28;20069;-73
2023/11/09 01:29:21;;;;;;;2.78;0.90;;;;;;;8.76;100.00;100097.31;6269624;22;20049;-77
2023/11/09 01:32:23;;;;;;;2.78;0.95;;;;;;;8.81;100.00;100090.06;6213241;28;20054;-77
2023/11/09 01:35:24;;;;;;;0.63;0.60;;;;;;;8.74;100.00;100077.41;6207264;28;20057;-76
2023/11/09 01:38:26;;;;;;;2.58;1.40;;;;;;;8.71;100.00;100075.78;6239912;28;20060;-79
2023/11/09 01:41:27;;;;;;;2.88;0.88;;;;;;;8.72;100.00;100068.75;6226615;28;20050;-79
2023/11/09 01:44:30;;;;;;;0.82;0.77;;;;;;;8.70;100.00;100076.72;6226110;28;20057;-77
2023/11/09 01:47:31;;;;;;;1.35;1.00;;;;;;;8.75;100.00;100071.22;6225534;28;20057;-79
2023/11/09 01:50:33;;;;;;;1.75;1.00;;;;;;;8.72;100.00;100064.41;6226026;28;20443;-77
2023/11/09 01:53:35;;;;;;;1.05;0.82;;;;;;;8.70;100.00;100062.78;6225609;28;20049;-76
2023/11/09 01:56:36;;;;;;;2.83;1.10;;;;;;;8.71;100.00;100059.22;6225886;28;20056;-79
2023/11/09 01:59:41;;;;;;;4.30;1.20;;;;;;;8.74;100.00;100059.91;6225699;28;20060;-76
2023/11/09 02:02:42;;;;;;;5.68;1.10;;;;;;;8.73;100.00;100052.97;6225549;28;20046;-79
2023/11/09 02:05:44;;;;;;;2.00;0.93;;;;;;;8.74;100.00;100057.28;6234806;28;20054;-77
2023/11/09 02:08:47;;;;;;;1.13;0.80;;;;;;;8.76;100.00;100054.56;6241866;28;20081;-79
2023/11/09 02:11:49;;;;;;;1.15;0.85;;;;;;;8.76;100.00;100044.09;6244812;28;20127;-79
2023/11/09 02:14:52;;;;;;;1.92;1.00;;;;;;;8.81;100.00;100042.03;6254949;28;20107;-77
2023/11/09 02:17:54;;;;;;;3.75;1.05;;;;;;;8.79;100.00;100036.06;6255067;28;20050;-77
2023/11/09 02:20:56;;;;;;;2.53;1.00;;;;;;;8.85;100.00;100030.47;6254768;28;20045;-76
2023/11/09 02:24:00;;;;;;;2.15;0.93;;;;;;;8.79;100.00;100022.97;6254843;28;20128;-77
2023/11/09 02:27:05;;;;;;;2.97;0.80;;;;;;;8.82;100.00;100018.41;6254700;28;20049;-77
2023/11/09 02:30:07;;;;;;;1.17;0.80;;;;;;;8.84;100.00;100015.69;6254588;28;20045;-77
2023/11/09 02:33:10;;;;;;;2.53;0.90;;;;;;;8.86;100.00;100009.44;6254368;28;20053;-77
2023/11/09 02:36:12;;;;;;;2.80;1.05;;;;;;;8.86;100.00;100003.34;6254447;28;20049;-77
2023/11/09 02:39:14;;;;;;;1.08;0.65;;;;;;;8.87;100.00;100003.25;6254332;28;20076;-76
2023/11/09 02:42:17;;;;;;;0.73;0.70;;;;;;;8.88;100.00;99998.84;6254447;28;20049;-77
2023/11/09 02:45:18;;;;;;;1.17;0.75;;;;;;;8.88;100.00;99988.38;6254407;28;20057;-76
2023/11/09 02:48:19;;;;;;;1.25;1.15;;;;;;;8.86;100.00;99985.84;6254435;28;20060;-76
2023/11/09 02:51:21;;;;;;;1.67;0.95;;;;;;;8.83;100.00;99983.41;6254111;28;20060;-76
2023/11/09 02:54:22;;;;;;;2.15;0.93;;;;;;;8.78;100.00;99979.38;6253988;28;20045;-76
2023/11/09 02:57:26;;;;;;;1.63;1.02;;;;;;;8.76;100.00;99973.34;6254210;28;20060;-75
2023/11/09 03:00:28;;;;;;;1.33;0.90;;;;;;;8.78;100.00;99969.72;6253883;28;20111;-75
2023/11/09 03:03:29;;;;;;;1.58;1.02;;;;;;;8.80;100.00;99965.22;6253907;28;20042;-76
2023/11/09 03:06:30;;;;;;;3.53;1.10;;;;;;;8.80;100.00;99959.16;6253737;28;20058;-76
2023/11/09 03:09:34;;;;;;;2.88;0.95;;;;;;;8.82;100.00;99958.13;6246562;28;20056;-76
2023/11/09 03:12:36;;;;;;;10.23;2.10;;;;;;;8.82;100.00;99962.53;6252465;28;20045;-77
2023/11/09 03:15:39;;;;;;;2.28;1.13;;;;;;;8.84;100.00;99961.50;6245379;28;20055;-77
2023/11/09 03:18:42;;;;;;;2.13;1.35;;;;;;;8.86;100.00;99951.78;6249457;28;20128;-77
2023/11/09 03:21:43;;;;;;;2.15;0.80;;;;;;;8.84;100.00;99942.31;6243704;28;20052;-77
2023/11/09 03:24:44;;;;;;;3.70;1.10;;;;;;;8.83;100.00;99946.72;6253396;28;20442;-76
2023/11/09 03:27:47;;;;;;;3.17;0.90;;;;;;;8.84;100.00;99940.53;6253358;28;20052;-76
2023/11/09 03:30:49;;;;;;;2.63;1.20;;;;;;;8.87;100.00;99943.00;6244729;28;20142;-76
2023/11/09 03:33:50;;;;;;;2.38;0.95;;;;;;;8.88;100.00;99930.72;6253379;28;20061;-77
2023/11/09 03:36:53;;;;;;;5.95;1.10;;;;;;;8.84;100.00;99926.59;6252900;28;20049;-76
2023/11/09 03:39:55;;;;;;;2.58;1.23;;;;;;;8.85;100.00;99920.41;6243912;28;20046;-76
2023/11/09 03:42:58;;;;;;;1.25;0.90;;;;;;;8.88;100.00;99913.22;6228632;28;20145;-77
2023/11/09 03:45:59;;;;;;;2.35;1.33;;;;;;;8.89;100.00;99912.28;6228589;28;20450;-77
2023/11/09 03:49:02;;;;;;;1.58;1.40;;;;;;;8.85;100.00;99909.94;6228264;28;20046;-77
2023/11/09 03:52:04;;;;;;;2.85;1.10;;;;;;;8.85;100.00;99904.69;6228101;28;20140;-76
2023/11/09 03:55:07;;;;;;;2.17;1.17;;;;;;;8.80;100.00;99902.34;6228101;28;20335;-76
2023/11/09 03:58:09;;;;;;;1.77;1.48;;;;;;;8.81;100.00;99895.34;6228114;28;20053;-77
2023/11/09 04:01:11;;;;;;;4.10;1.08;;;;;;;8.84;100.00;99889.91;6227890;28;20455;-76
2023/11/09 04:04:14;;;;;;;1.58;0.70;;;;;;;8.84;100.00;99896.00;6243839;28;20346;-77
2023/11/09 04:07:16;;;;;;;1.38;0.70;;;;;;;8.81;100.00;99896.22;6252166;28;20061;-76
2023/11/09 04:10:17;;;;;;;1.80;1.00;;;;;;;8.84;100.00;99893.38;6252391;28;20045;-76
2023/11/09 04:13:20;;;;;;;1.25;0.93;;;;;;;8.86;100.00;99890.69;6248803;28;20517;-76
2023/11/09 04:16:21;;;;;;;1.38;1.15;;;;;;;8.87;100.00;99887.97;6247384;28;20353;-76
2023/11/09 04:19:23;;;;;;;1.63;1.20;;;;;;;8.88;100.00;99889.66;6252113;28;20050;-76
2023/11/09 04:22:25;;;;;;;1.35;1.10;;;;;;;8.87;100.00;99876.66;6252129;28;20052;-76
2023/11/09 04:25:26;;;;;;;1.25;1.02;;;;;;;8.83;100.00;99875.97;6251979;28;20343;-77
2023/11/09 04:28:32;;;;;;;2.15;1.20;;;;;;;8.83;100.00;99873.38;6252008;28;20054;-76
2023/11/09 04:31:36;;;;;;;1.90;1.00;;;;;;;8.87;100.00;99863.53;6251957;28;20411;-76
2023/11/09 04:34:38;;;;;;;0.80;0.70;;;;;;;8.90;100.00;99863.34;6251604;28;20049;-76
2023/11/09 04:37:41;;;;;;;1.77;1.30;;;;;;;8.94;100.00;99864.00;6251558;28;20053;-76
2023/11/09 04:40:44;;;;;;;1.02;0.88;;;;;;;8.93;100.00;99852.69;6251511;28;20149;-75
2023/11/09 04:43:46;;;;;;;2.20;0.98;;;;;;;8.92;100.00;99856.25;6251679;28;20133;-76
2023/11/09 04:46:48;;;;;;;1.42;0.82;;;;;;;8.95;100.00;99852.59;6251504;28;20058;-76
2023/11/09 04:49:58;;;;;;;4.82;1.00;;;;;;;9.02;100.00;99859.16;6251439;28;20053;-76
2023/11/09 04:53:15;;;;;;;1.10;0.90;;;;;;;8.99;100.00;99854.09;6251123;28;20473;-76
2023/11/09 04:56:32;;;;;;;1.35;0.80;;;;;;;9.00;100.00;99847.94;6251519;28;20102;-76
2023/11/09 05:09:31;;;;;;;4.07;1.13;;;;;;;8.95;100.00;99839.47;6250979;28;20053;-76
2023/11/09 05:12:34;;;;;;;2.85;0.77;;;;;;;8.95;100.00;99842.09;6250886;28;20132;-76
2023/11/09 05:15:36;;;;;;;9.35;1.10;;;;;;;8.96;100.00;99836.78;6250818;28;20049;-76
2023/11/09 05:18:38;;;;;;;2.72;1.08;;;;;;;8.97;100.00;99838.47;6249534;28;20054;-76
2023/11/09 05:21:40;;;;;;;1.13;0.95;;;;;;;8.94;100.00;99833.41;6241536;28;20135;-76
2023/11/09 05:24:42;;;;;;;1.27;1.10;;;;;;;8.93;100.00;99828.25;6250689;28;20053;-76
2023/11/09 05:27:44;;;;;;;1.90;1.00;;;;;;;8.93;100.00;99825.66;6250711;28;20085;-76
2023/11/09 05:30:47;;;;;;;1.90;1.27;;;;;;;8.93;100.00;99823.84;6242099;28;20045;-76
2023/11/09 05:33:50;;;;;;;2.50;1.10;;;;;;;8.93;100.00;99817.78;6250560;28;20049;-76
2023/11/09 05:36:51;;;;;;;1.85;0.90;;;;;;;8.96;100.00;99822.84;6250247;28;20089;-75
2023/11/09 05:39:53;;;;;;;2.25;1.05;;;;;;;8.92;100.00;99818.72;6247348;28;20132;-76
2023/11/09 05:42:55;;;;;;;2.25;1.40;;;;;;;8.92;100.00;99810.88;6223663;28;20052;-76
2023/11/09 05:45:57;;;;;;;3.28;1.30;;;;;;;8.92;100.00;99811.72;6200806;28;20076;-76
2023/11/09 05:48:59;;;;;;;2.88;1.13;;;;;;;8.92;100.00;99806.47;6205036;28;20057;-76
2023/11/09 05:52:00;;;;;;;4.07;1.88;;;;;;;8.93;100.00;99808.13;6212431;28;20050;-76
2023/11/09 05:55:04;;;;;;;1.23;1.00;;;;;;;8.94;100.00;99806.34;6206668;28;20053;-76
2023/11/09 05:58:06;;;;;;;1.98;1.30;;;;;;;8.99;100.00;99799.88;6201621;28;20136;-77
2023/11/09 06:01:09;;;;;;;2.03;1.00;;;;;;;8.97;100.00;99803.56;6211123;28;20136;-76
2023/11/09 06:04:10;;;;;;;4.57;1.10;;;;;;;8.93;100.00;99804.69;6242026;28;20084;-76
2023/11/09 06:07:11;;;;;;;2.25;1.20;;;;;;;8.95;100.00;99803.66;6235304;28;20045;-76
2023/11/09 06:10:13;;;;;;;2.08;1.27;;;;;;;8.93;100.00;99800.28;6243698;28;20112;-76
2023/11/09 06:13:14;;;;;;;3.72;1.00;;;;;;;8.95;100.00;99792.31;6218320;28;20088;-76
2023/11/09 06:16:18;;;;;;;1.33;0.85;;;;;;;8.95;100.00;99795.81;6209506;28;20051;-75
2023/11/09 06:19:19;;;;;;;1.63;0.93;;;;;;;8.95;100.00;99803.66;6213328;28;20053;-76
2023/11/09 06:22:21;;;;;;;2.08;1.17;;;;;;;8.94;100.00;99796.72;6211296;28;20057;-75
2023/11/09 06:25:22;;;;;;;1.85;1.10;;;;;;;8.95;100.00;99802.78;6211827;28;20053;-74
2023/11/09 06:28:24;;;;;;;1.60;1.10;;;;;;;8.92;100.00;99792.53;6213561;28;20056;-74
2023/11/09 06:31:27;;;;;;;3.13;1.45;;;;;;;8.94;100.00;99796.72;6212025;28;20423;-75
2023/11/09 06:34:29;;;;;;;1.73;1.13;;;;;;;8.88;100.00;99795.31;6212879;28;20092;-75
2023/11/09 06:37:31;;;;;;;4.22;1.33;;;;;;;8.92;100.00;99803.84;6212432;28;20046;-75
2023/11/09 06:40:34;;;;;;;1.25;0.85;;;;;;;8.94;100.00;99799.34;6212379;28;20046;-75
2023/11/09 06:43:37;;;;;;;1.50;1.02;;;;;;;8.99;100.00;99802.50;6213098;28;20133;-74
2023/11/09 06:46:40;;;;;;;4.40;1.27;;;;;;;8.99;100.00;99804.28;6211751;28;20141;-75
2023/11/09 06:49:41;;;;;;;4.53;1.25;;;;;;;9.02;100.00;99806.72;6213765;28;20076;-75
2023/11/09 06:52:43;;;;;;;1.55;1.10;;;;;;;9.01;100.00;99816.38;6211298;28;20050;-76
2023/11/09 06:55:45;;;;;;;1.60;1.00;;;;;;;8.96;100.00;99801.88;6213922;28;20057;-76
2023/11/09 06:58:47;;;;;;;1.58;1.10;;;;;;;8.97;100.00;99807.00;6205539;28;20046;-76
2023/11/09 07:01:49;;;;;;;2.85;1.20;;;;;;;8.92;100.00;99806.47;6212882;28;20068;-77
2023/11/09 07:04:51;;;;;;;1.63;1.10;;;;;;;8.95;100.00;99805.41;6218310;28;20050;-76
2023/11/09 07:07:52;;;;;;;2.40;1.33;;;;;;;8.95;100.00;99789.69;6224051;28;20049;-76
2023/11/09 07:10:53;;;;;;;1.88;1.25;;;;;;;8.93;100.00;99802.91;6229424;28;20053;-77
2023/11/09 07:13:55;;;;;;;2.08;1.02;;;;;;;8.92;100.00;99803.00;6229128;28;20046;-76
2023/11/09 07:16:57;;;;;;;1.38;1.05;;;;;;;8.95;100.00;99801.03;6229155;28;20054;-76
2023/11/09 07:19:59;;;;;;;2.50;1.20;;;;;;;8.93;100.00;99813.38;6229108;28;20050;-77
2023/11/09 07:23:06;;;;;;;1.58;1.33;;;;;;;8.93;100.00;99808.13;6228924;28;20049;-76
2023/11/09 07:26:07;;;;;;;1.45;1.35;;;;;;;8.96;100.00;99812.38;6229065;28;20439;-76
2023/11/09 07:29:09;;;;;;;2.47;1.48;;;;;;;8.95;100.00;99813.28;6253564;22;20038;-75
2023/11/09 07:32:12;;;;;;;2.45;1.40;;;;;;;8.97;100.00;99809.63;6228266;28;20050;-74
2023/11/09 07:35:13;;;;;;;2.25;1.40;;;;;;;8.96;100.00;99828.09;6228756;28;20430;-76
2023/11/09 07:38:15;;;;;;;2.25;1.42;;;;;;;8.99;100.00;99823.47;6228499;28;20076;-76
2023/11/09 07:41:17;;;;;;;1.52;1.27;;;;;;;8.90;100.00;99818.81;6228527;28;20052;-75
2023/11/09 07:44:18;;;;;;;3.75;1.50;;;;;;;8.86;100.00;99823.41;6228764;28;20056;-75
2023/11/09 07:47:21;;;;;;;2.58;1.50;;;;;;;8.87;100.00;99825.09;6228519;28;20052;-76
2023/11/09 07:50:23;;;;;;;7.00;1.45;;;;;;;8.92;100.00;99821.34;6228716;28;20435;-75
2023/11/09 07:53:25;;;;;;;2.90;1.73;;;;;;;8.89;100.00;99823.19;6228392;28;20053;-76
2023/11/09 07:56:27;;;;;;;5.00;1.77;;;;;;;8.88;100.00;99824.16;6228337;28;20046;-76
2023/11/09 07:59:29;;;;;;;2.55;1.67;;;;;;;8.99;100.00;99828.72;6227602;28;20053;-75
2023/11/09 08:02:31;;;;;;;2.35;1.70;;;;;;;8.99;100.00;99820.84;6227757;28;20054;-76
2023/11/09 08:05:37;;;;;;;2.95;1.83;;;;;;;9.01;100.00;99826.84;6228028;28;20088;-76
2023/11/09 08:08:41;;;;;;;2.40;1.60;;;;;;;9.00;100.00;99825.19;6220814;28;20046;-73
2023/11/09 08:11:43;;;;;;;3.10;1.52;;;;;;;9.05;100.00;99827.53;6227261;28;20378;-73
2023/11/09 08:14:44;;;;;;;4.20;1.77;;;;;;;9.11;100.00;99830.59;6227373;28;20075;-73
2023/11/09 08:17:47;;;;;;;4.68;1.40;;;;;;;9.09;100.00;99824.63;6225543;28;20049;-73
2023/11/09 08:20:50;;;;;;;2.42;1.42;;;;;;;9.12;100.00;99827.03;6220789;28;20434;-74
2023/11/09 08:23:52;;;;;;;1.25;1.00;;;;;;;9.18;100.00;99827.59;6227274;28;20058;-75
2023/11/09 08:26:53;;;;;;;2.40;1.15;;;;;;;9.19;100.00;99819.63;6219267;28;20049;-74
2023/11/09 08:29:54;;;;;;;6.00;1.92;;;;;;;9.18;100.00;99817.97;6227125;28;20046;-74
2023/11/09 08:32:57;;;;;;;2.10;1.30;;;;;;;9.18;100.00;99823.19;6227009;28;20049;-75
2023/11/09 08:36:00;;;;;;;2.25;1.30;;;;;;;9.19;100.00;99824.88;6226809;28;20053;-74
2023/11/09 08:39:02;;;;;;;1.25;1.00;;;;;;;9.22;100.00;99818.59;6227367;28;20049;-74
2023/11/09 08:42:04;;;;;;;1.20;1.02;;;;;;;9.18;100.00;99814.50;6226977;28;20133;-75
2023/11/09 08:45:09;;;;;;;2.30;1.15;;;;;;;9.23;100.00;99822.91;6219296;28;20462;-73
2023/11/09 08:48:12;;;;;;;2.33;1.20;;;;;;;9.24;100.00;99827.22;6225824;28;20050;-73
2023/11/09 08:51:14;;;;;;;1.75;0.90;;;;;;;9.25;100.00;99821.88;6226794;28;20061;-74
2023/11/09 08:54:16;;;;;;;2.03;1.17;;;;;;;9.29;100.00;99825.16;6226515;28;20331;-74
2023/11/09 08:57:18;;;;;;;1.48;0.68;;;;;;;9.32;100.00;99825.81;6226879;28;20366;-74
2023/11/09 09:00:23;;;;;;;1.42;0.88;;;;;;;9.34;100.00;99821.28;6226723;28;20061;-74
2023/11/09 09:03:26;;;;;;;2.90;0.90;;;;;;;9.36;100.00;99824.66;6226784;28;20139;-72
2023/11/09 09:06:29;;;;;;;1.23;0.82;;;;;;;9.36;100.00;99829.91;6226213;28;20045;-73
2023/11/09 09:09:32;;;;;;;1.60;0.98;;;;;;;9.39;100.00;99824.44;6226239;28;20088;-73
2023/11/09 09:12:33;;;;;;;1.20;0.90;;;;;;;9.45;100.00;99825.00;6226463;28;20065;-73
2023/11/09 09:15:35;;;;;;;1.10;1.00;;;;;;;9.51;100.00;99819.38;6226059;28;20449;-73
2023/11/09 09:18:38;;;;;;;1.05;0.80;;;;;;;9.53;100.00;99817.50;6226221;28;20467;-72
2023/11/09 09:21:40;;;;;;;1.48;0.90;;;;;;;9.50;100.00;99820.34;6223520;28;20045;-72
2023/11/09 09:24:41;;;;;;;2.28;0.90;;;;;;;9.54;100.00;99827.06;6225487;28;20461;-73
2023/11/09 09:27:46;;;;;;;0.52;0.50;;;;;;;9.51;100.00;99822.00;6226036;28;20044;-72
2023/11/09 09:30:49;;;;;;;1.30;0.60;;;;;;;9.48;100.00;99827.44;6224543;28;20057;-72
2023/11/09 09:34:02;;;;;;;2.75;1.23;;;;;;;9.46;100.00;99832.78;6219305;28;20088;-72
2023/11/09 09:37:03;;;;;;;1.08;0.70;;;;;;;9.47;100.00;99837.09;6214094;28;20455;-71
2023/11/09 09:40:14;;;;;;;0.85;0.68;;;;;;;9.52;100.00;99821.91;6225539;28;20686;-72
2023/11/09 09:43:19;;;;;;;1.45;0.77;;;;;;;9.59;100.00;99830.25;6226200;28;20046;-71
2023/11/09 09:46:24;;;;;;;2.85;1.08;;;;;;;9.58;100.00;99828.53;6225804;28;20162;-71
2023/11/09 09:49:27;;;;;;;2.95;0.75;;;;;;;9.64;100.00;99833.41;6226053;28;20061;-73
2023/11/09 09:52:30;;;;;;;3.33;1.60;;;;;;;9.65;100.00;99840.31;6225607;28;20057;-74
2023/11/09 09:55:32;;;;;;;1.63;1.10;;;;;;;9.65;100.00;99835.09;6226179;28;20042;-71
2023/11/09 09:58:35;;;;;;;0.80;0.70;;;;;;;9.69;100.00;99836.56;6222072;28;20347;-72
2023/11/09 10:01:41;;;;;;;0.63;0.50;;;;;;;9.70;100.00;99838.25;6222046;28;20046;-74
2023/11/09 10:04:46;;;;;;;1.83;1.08;;;;;;;9.72;100.00;99839.00;6225896;28;20046;-73
2023/11/09 10:08:02;;;;;;;1.40;0.98;;;;;;;9.71;100.00;99833.84;6225850;28;20056;-71
2023/11/09 10:11:04;;;;;;;1.00;0.68;;;;;;;9.74;100.00;99836.28;6217683;28;20053;-74
2023/11/09 10:14:06;;;;;;;1.65;0.80;;;;;;;9.75;100.00;99830.06;6221745;28;20046;-72
2023/11/09 10:17:08;;;;;;;1.17;0.85;;;;;;;9.70;100.00;99840.03;6225565;28;20046;-74
2023/11/09 10:20:14;;;;;;;2.08;1.00;;;;;;;9.72;100.00;99833.75;6225475;28;20050;-72
2023/11/09 10:23:16;;;;;;;1.52;1.00;;;;;;;9.83;100.00;99833.88;6225659;28;20053;-71
2023/11/09 10:26:19;;;;;;;2.75;1.05;;;;;;;9.79;100.00;99831.56;6225561;28;20188;-73
2023/11/09 10:29:21;;;;;;;3.45;1.65;;;;;;;9.79;100.00;99831.56;6225331;28;20402;-75
2023/11/09 10:32:23;;;;;;;2.92;0.85;;;;;;;9.81;100.00;99829.66;6227566;28;20060;-72
2023/11/09 10:35:26;;;;;;;1.02;0.70;;;;;;;9.89;100.00;99824.78;6230408;28;20046;-73
2023/11/09 10:38:32;;;;;;;0.73;0.73;;;;;;;9.88;100.00;99829.19;6229795;28;20046;-74
2023/11/09 10:41:34;;;;;;;1.10;0.75;;;;;;;9.84;100.00;99826.84;6230000;28;20506;-73
2023/11/09 10:44:37;;;;;;;2.92;0.93;;;;;;;9.81;100.00;99827.91;6229814;28;20067;-73
2023/11/09 10:47:40;;;;;;;0.95;0.70;;;;;;;9.80;100.00;99836.72;6229936;28;20053;-72
2023/11/09 10:50:47;;;;;;;1.90;0.65;;;;;;;9.82;100.00;99826.13;6229831;28;20049;-72
2023/11/09 10:53:49;;;;;;;1.92;0.70;;;;;;;9.81;100.00;99822.66;6229546;28;20355;-72
2023/11/09 10:56:52;;;;;;;0.88;0.60;;;;;;;9.81;100.00;99813.94;6229621;28;20430;-71
2023/11/09 10:59:55;;;;;;;1.00;0.70;;;;;;;9.82;100.00;99831.38;6226097;28;20427;-72
2023/11/09 11:03:04;;;;;;;4.03;0.65;;;;;;;9.83;100.00;99820.78;6228916;28;20354;-72
2023/11/09 11:06:09;;;;;;;;;;;;;;;9.87;100.00;99826.66;6229790;28;20053;-72
2023/11/09 11:09:18;;;;;;;1.95;0.77;;;;;;;9.86;100.00;99825.00;6229325;28;19972;-71
2023/11/09 11:12:23;;;;;;;0.63;0.57;;;;;;;9.85;100.00;99831.16;6229365;28;20099;-72
2023/11/09 11:15:37;;;;;;;0.80;0.80;;;;;;;9.89;100.00;99825.59;6229254;28;20112;-73
2023/11/09 11:19:15;;;;;;;1.33;0.60;;;;;;;9.94;100.00;99827.94;6213593;28;20398;-73
2023/11/09 11:22:47;;;;;;;0.50;0.50;;;;;;;9.94;100.00;99825.31;6222273;28;20054;-72
2023/11/09 11:25:58;;;;;;;0.88;0.73;;;;;;;9.90;100.00;99819.44;6227084;28;20052;-71
2023/11/09 11:29:00;;;;;;;2.45;0.77;;;;;;;9.92;100.00;99811.47;6220448;28;20457;-71
2023/11/09 11:32:03;;;;;;;0.85;0.70;;;;;;;9.93;100.00;99815.75;6228346;28;20057;-71
2023/11/09 11:35:06;;;;;;;1.38;0.70;;;;;;;9.91;100.00;99815.03;6228701;28;20042;-72
2023/11/09 11:38:22;;;;;;;0.80;0.80;;;;;;;9.91;100.00;99818.50;6228173;28;20069;-79
2023/11/09 11:41:23;;;;;;;1.50;0.60;;;;;;;9.93;100.00;99822.78;6228125;28;20057;-71
2023/11/09 11:44:36;;;;;;;3.30;0.75;;;;;;;9.89;100.00;99814.28;6227339;28;20569;-72
2023/11/09 11:47:38;;;;;;;1.55;0.80;;;;;;;9.87;100.00;99816.16;6228445;28;20050;-71
2023/11/09 11:50:40;;;;;;;1.73;1.13;;;;;;;9.88;100.00;99818.69;6228507;28;20458;-71
2023/11/09 11:53:44;;;;;;;1.48;1.02;;;;;;;9.88;100.00;99813.44;6228024;28;20147;-71
2023/11/09 11:56:50;;;;;;;1.85;1.23;;;;;;;9.83;100.00;99814.69;6228457;28;20050;-72
2023/11/09 12:00:08;;;;;;;2.80;1.45;;;;;;;9.85;100.00;99804.91;6227979;28;20046;-72
2023/11/09 12:03:10;;;;;;;1.80;1.48;;;;;;;9.83;100.00;99812.06;6227764;28;20397;-71
2023/11/09 12:06:13;;;;;;;3.38;1.27;;;;;;;9.79;100.00;99810.56;6227942;28;20050;-70
2023/11/09 12:09:18;;;;;;;2.80;1.80;;;;;;;9.71;100.00;99818.09;6222762;28;20049;-73
2023/11/09 12:12:20;;;;;;;3.15;2.05;;;;;;;9.70;100.00;99809.38;6224766;28;20065;-74
2023/11/09 12:15:28;;;;;;;4.50;2.10;;;;;;;9.64;100.00;99807.16;6227394;28;20045;-81
2023/11/09 12:18:29;;;;;;;3.55;2.03;;;;;;;9.66;100.00;99811.34;6218141;28;20445;-77
2023/11/09 12:21:32;;;;;;;4.70;2.42;;;;;;;9.67;100.00;99817.44;6224889;28;20056;-73
2023/11/09 12:24:35;;;;;;;2.97;2.33;;;;;;;9.63;100.00;99818.63;6227500;28;20219;-75
2023/11/09 12:27:39;;;;;;;5.18;2.83;;;;;;;9.65;100.00;99814.09;6226394;28;20049;-75
2023/11/09 12:30:40;;;;;;;7.10;2.58;;;;;;;9.66;100.00;99824.47;6227168;28;20054;-76
2023/11/09 12:33:42;;;;;;;6.28;2.17;;;;;;;9.63;100.00;99821.22;6227289;28;20366;-75
2023/11/09 12:36:46;;;;;;;2.78;1.65;;;;;;;9.60;100.00;99813.56;6226966;28;20042;-75
2023/11/09 12:39:49;;;;;;;2.70;1.77;;;;;;;9.59;100.00;99827.63;6227506;28;20072;-74
2023/11/09 12:42:51;;;;;;;3.30;2.05;;;;;;;9.57;100.00;99832.09;6227071;28;20343;-76
2023/11/09 12:46:04;;;;;;;3.08;1.92;;;;;;;9.54;100.00;99830.53;6227101;28;20049;-76
2023/11/09 12:49:09;;;;;;;7.70;1.92;;;;;;;9.37;100.00;99833.38;6227099;28;20049;-72
2023/11/09 12:52:11;;;;;;;5.03;1.88;;;;;;;9.44;100.00;99836.44;6223376;28;20473;-73
2023/11/09 12:55:15;;;;;;;3.60;1.38;;;;;;;9.33;100.00;99837.97;6226157;28;20049;-75
2023/11/09 12:58:21;;;;;;;2.92;1.55;;;;;;;9.30;100.00;99834.69;6225333;28;20068;-75
2023/11/09 13:01:24;;;;;;;6.90;1.55;;;;;;;9.25;100.00;99834.13;6226074;28;20053;-73
2023/11/09 13:04:28;;;;;;;1.63;1.38;;;;;;;9.17;100.00;99824.13;6224594;28;20462;-72
2023/11/09 13:07:29;;;;;;;4.07;1.45;;;;;;;9.14;100.00;99827.78;6217565;28;20042;-74
2023/11/09 13:10:34;;;;;;;2.97;1.40;;;;;;;9.11;100.00;99827.97;6226430;28;20054;-74
2023/11/09 13:13:36;;;;;;;3.38;1.92;;;;;;;9.07;100.00;99830.88;6223996;28;20056;-77
2023/11/09 13:16:38;;;;;;;1.65;1.45;;;;;;;9.00;100.00;99817.31;6214872;28;20435;-76
2023/11/09 13:19:44;;;;;;;7.78;1.90;;;;;;;8.97;100.00;99811.41;6225007;28;20050;-75
2023/11/09 13:22:46;;;;;;;3.72;1.80;;;;;;;8.96;100.00;99820.22;6215183;28;20444;-74
2023/11/09 13:25:50;;;;;;;7.82;2.45;;;;;;;9.02;100.00;99817.22;6222782;28;20058;-71
2023/11/09 13:28:51;;;;;;;7.60;2.22;;;;;;;8.98;100.00;99815.72;6223878;28;20473;-76
2023/11/09 13:31:56;;;;;;;11.55;2.72;;;;;;;9.01;100.00;99818.16;6218004;28;20046;-74
2023/11/09 13:35:23;;;;;;;4.40;2.38;;;;;;;9.07;100.00;99816.00;6226478;28;20139;-73
2023/11/09 13:38:30;;;;;;;3.20;1.70;;;;;;;9.06;100.00;99813.47;6225496;28;20131;-74
2023/11/09 13:41:41;;;;;;;6.78;2.28;;;;;;;9.10;100.00;99809.72;6225865;28;20060;-73
2023/11/09 13:44:43;;;;;;;3.88;1.90;;;;;;;9.15;100.00;99810.28;6225942;28;20362;-74
2023/11/09 13:47:51;;;;;;;6.40;1.95;;;;;;;9.18;100.00;99804.00;6225786;28;20389;-73
2023/11/09 13:50:58;;;;;;;5.72;2.30;;;;;;;9.23;100.00;99799.31;6225270;28;20080;-76
2023/11/09 13:54:19;;;;;;;6.68;2.20;;;;;;;9.26;100.00;99797.31;6223959;28;20050;-73
2023/11/09 13:57:24;;;;;;;5.53;2.08;;;;;;;9.31;100.00;99799.66;6219369;28;20409;-75
2023/11/09 14:00:35;;;;;;;6.68;1.77;;;;;;;9.34;100.00;99795.06;6225672;28;20057;-76
2023/11/09 14:03:40;;;;;;;4.25;2.35;;;;;;;9.39;100.00;99787.75;6223957;28;20450;-75
2023/11/09 14:06:45;;;;;;;3.35;1.90;;;;;;;9.45;100.00;99806.66;6223567;28;20049;-75
2023/11/09 14:09:47;;;;;;;5.65;2.83;;;;;;;9.43;100.00;99800.66;6230702;28;20061;-75
2023/11/09 14:12:52;;;;;;;8.30;2.50;;;;;;;9.47;100.00;99796.91;6230622;28;20104;-72
2023/11/09 14:16:12;;;;;;;2.95;2.10;;;;;;;9.53;100.00;99783.41;6230661;28;20054;-75
2023/11/09 14:19:20;;;;;;;5.65;2.50;;;;;;;9.57;100.00;99784.88;6229748;28;20058;-75
2023/11/09 14:22:22;;;;;;;4.85;3.00;;;;;;;9.51;100.00;99782.66;6224860;28;20064;-75
2023/11/09 14:25:24;;;;;;;6.63;3.17;;;;;;;9.57;100.00;99787.50;6230379;28;20056;-74
2023/11/09 14:28:28;;;;;;;3.85;2.05;;;;;;;9.59;100.00;99783.03;6230657;28;20049;-73
2023/11/09 14:31:36;;;;;;;9.70;3.40;;;;;;;9.57;100.00;99777.84;6229867;28;20050;-73